sensor_id;sensor_type;location;lat;lon;timestamp;temperature;humidity
13850;DHT22;6995;52.618;13.488;2023-12-28T00:01:30;5.00;1.00
13850;DHT22;6995;52.618;13.488;2023-12-28T00:03:56;5.10;1.00
13850;DHT22;6995;52.618;13.488;2023-12-28T00:06:21;5.10;1.00
13850;DHT22;6995;52.618;13.488;2023-12-28T00:08:47;5.00;1.00
13850;DHT22;6995;52.618;13.488;2023-12-28T00:11:14;5.00;1.00
13850;DHT22;6995;52.618;13.488;2023-12-28T00:13:39;5.00;1.00
13850;DHT22;6995;52.618;13.488;2023-12-28T00:16:05;5.10;1.00
13850;DHT22;6995;52.618;13.488;2023-12-28T00:18:31;5.10;1.00
13850;DHT22;6995;52.618;13.488;2023-12-28T00:20:57;5.10;1.00
13850;DHT22;6995;52.618;13.488;2023-12-28T00:23:22;5.10;1.00
13850;DHT22;6995;52.618;13.488;2023-12-28T00:25:48;5.20;1.00
13850;DHT22;6995;52.618;13.488;2023-12-28T00:28:14;5.20;1.00
13850;DHT22;6995;52.618;13.488;2023-12-28T00:30:39;5.20;1.00
13850;DHT22;6995;52.618;13.488;2023-12-28T00:33:05;5.20;1.00
13850;DHT22;6995;52.618;13.488;2023-12-28T00:35:30;5.30;1.00
13850;DHT22;6995;52.618;13.488;2023-12-28T00:37:56;5.30;1.00
13850;DHT22;6995;52.618;13.488;2023-12-28T00:40:22;5.30;1.00
13850;DHT22;6995;52.618;13.488;2023-12-28T00:43:06;5.30;1.00
13850;DHT22;6995;52.618;13.488;2023-12-28T00:45:32;5.30;1.00
13850;DHT22;6995;52.618;13.488;2023-12-28T00:47:58;5.40;1.00
13850;DHT22;6995;52.618;13.488;2023-12-28T00:50:23;5.40;1.00
13850;DHT22;6995;52.618;13.488;2023-12-28T00:52:49;5.40;1.00
13850;DHT22;6995;52.618;13.488;2023-12-28T00:55:14;5.40;1.00
13850;DHT22;6995;52.618;13.488;2023-12-28T00:57:40;5.40;1.00
13850;DHT22;6995;52.618;13.488;2023-12-28T01:00:06;5.50;1.00
13850;DHT22;6995;52.618;13.488;2023-12-28T01:02:32;5.50;1.00
13850;DHT22;6995;52.618;13.488;2023-12-28T01:04:57;5.50;1.00
13850;DHT22;6995;52.618;13.488;2023-12-28T01:07:23;5.60;1.00
13850;DHT22;6995;52.618;13.488;2023-12-28T01:09:48;5.60;1.00
13850;DHT22;6995;52.618;13.488;2023-12-28T01:12:14;5.60;1.00
13850;DHT22;6995;52.618;13.488;2023-12-28T01:14:40;5.50;1.00
13850;DHT22;6995;52.618;13.488;2023-12-28T01:17:05;5.50;1.00
13850;DHT22;6995;52.618;13.488;2023-12-28T01:19:31;5.50;1.00
13850;DHT22;6995;52.618;13.488;2023-12-28T01:21:56;5.50;1.00
13850;DHT22;6995;52.618;13.488;2023-12-28T01:24:22;5.50;1.00
13850;DHT22;6995;52.618;13.488;2023-12-28T01:26:48;5.40;1.00
13850;DHT22;6995;52.618;13.488;2023-12-28T01:29:13;5.30;1.00
13850;DHT22;6995;52.618;13.488;2023-12-28T01:31:39;5.30;1.00
13850;DHT22;6995;52.618;13.488;2023-12-28T01:34:05;5.30;1.00
13850;DHT22;6995;52.618;13.488;2023-12-28T01:36:31;5.20;1.00
13850;DHT22;6995;52.618;13.488;2023-12-28T01:38:56;5.20;1.00
13850;DHT22;6995;52.618;13.488;2023-12-28T01:41:22;5.10;1.00
13850;DHT22;6995;52.618;13.488;2023-12-28T01:43:47;5.10;1.00
13850;DHT22;6995;52.618;13.488;2023-12-28T01:46:21;5.00;1.00
13850;DHT22;6995;52.618;13.488;2023-12-28T01:48:49;5.00;1.00
13850;DHT22;6995;52.618;13.488;2023-12-28T01:51:15;5.00;1.00
13850;DHT22;6995;52.618;13.488;2023-12-28T01:53:42;5.10;1.00
13850;DHT22;6995;52.618;13.488;2023-12-28T01:56:08;5.00;1.00
13850;DHT22;6995;52.618;13.488;2023-12-28T01:58:35;5.10;1.00
13850;DHT22;6995;52.618;13.488;2023-12-28T02:01:02;5.00;1.00
13850;DHT22;6995;52.618;13.488;2023-12-28T02:03:28;5.00;1.00
13850;DHT22;6995;52.618;13.488;2023-12-28T02:05:54;5.10;1.00
13850;DHT22;6995;52.618;13.488;2023-12-28T02:08:20;5.10;1.00
13850;DHT22;6995;52.618;13.488;2023-12-28T02:10:46;5.10;1.00
13850;DHT22;6995;52.618;13.488;2023-12-28T02:13:12;5.20;1.00
13850;DHT22;6995;52.618;13.488;2023-12-28T02:15:38;5.30;1.00
13850;DHT22;6995;52.618;13.488;2023-12-28T02:18:20;5.40;1.00
13850;DHT22;6995;52.618;13.488;2023-12-28T02:20:47;5.50;1.00
13850;DHT22;6995;52.618;13.488;2023-12-28T02:23:14;5.70;1.00
13850;DHT22;6995;52.618;13.488;2023-12-28T02:25:40;5.80;1.00
13850;DHT22;6995;52.618;13.488;2023-12-28T02:28:06;5.90;1.00
13850;DHT22;6995;52.618;13.488;2023-12-28T02:30:31;6.00;1.00
13850;DHT22;6995;52.618;13.488;2023-12-28T02:36:15;6.20;1.00
13850;DHT22;6995;52.618;13.488;2023-12-28T02:38:44;6.40;1.00
13850;DHT22;6995;52.618;13.488;2023-12-28T02:41:11;6.60;1.00
13850;DHT22;6995;52.618;13.488;2023-12-28T02:43:37;6.70;1.00
13850;DHT22;6995;52.618;13.488;2023-12-28T02:46:03;6.80;99.90
13850;DHT22;6995;52.618;13.488;2023-12-28T02:48:29;6.90;99.90
13850;DHT22;6995;52.618;13.488;2023-12-28T02:50:55;7.00;99.90
13850;DHT22;6995;52.618;13.488;2023-12-28T02:53:21;7.10;99.90
13850;DHT22;6995;52.618;13.488;2023-12-28T02:55:46;7.20;99.90
13850;DHT22;6995;52.618;13.488;2023-12-28T02:58:12;7.30;99.90
13850;DHT22;6995;52.618;13.488;2023-12-28T03:00:37;7.40;99.90
13850;DHT22;6995;52.618;13.488;2023-12-28T03:03:03;7.50;99.90
13850;DHT22;6995;52.618;13.488;2023-12-28T03:05:29;7.60;99.90
13850;DHT22;6995;52.618;13.488;2023-12-28T03:07:54;7.70;99.90
13850;DHT22;6995;52.618;13.488;2023-12-28T03:10:21;7.80;99.90
13850;DHT22;6995;52.618;13.488;2023-12-28T03:12:46;7.80;99.90
13850;DHT22;6995;52.618;13.488;2023-12-28T03:15:12;7.90;99.90
13850;DHT22;6995;52.618;13.488;2023-12-28T03:17:38;7.90;99.90
13850;DHT22;6995;52.618;13.488;2023-12-28T03:20:04;7.90;99.90
13850;DHT22;6995;52.618;13.488;2023-12-28T03:22:30;8.00;99.90
13850;DHT22;6995;52.618;13.488;2023-12-28T03:24:56;8.00;99.90
13850;DHT22;6995;52.618;13.488;2023-12-28T03:27:21;8.10;99.90
13850;DHT22;6995;52.618;13.488;2023-12-28T03:29:47;8.00;99.90
13850;DHT22;6995;52.618;13.488;2023-12-28T03:32:14;8.10;99.90
13850;DHT22;6995;52.618;13.488;2023-12-28T03:34:39;8.10;99.90
13850;DHT22;6995;52.618;13.488;2023-12-28T03:37:05;8.10;99.90
13850;DHT22;6995;52.618;13.488;2023-12-28T03:39:31;8.10;99.90
13850;DHT22;6995;52.618;13.488;2023-12-28T03:41:56;8.10;99.90
13850;DHT22;6995;52.618;13.488;2023-12-28T03:44:22;8.20;99.90
13850;DHT22;6995;52.618;13.488;2023-12-28T03:46:49;8.20;99.90
13850;DHT22;6995;52.618;13.488;2023-12-28T03:49:19;8.10;99.90
13850;DHT22;6995;52.618;13.488;2023-12-28T03:51:45;8.10;99.90
13850;DHT22;6995;52.618;13.488;2023-12-28T03:54:11;8.10;99.90
13850;DHT22;6995;52.618;13.488;2023-12-28T03:56:37;8.00;99.90
13850;DHT22;6995;52.618;13.488;2023-12-28T03:59:05;7.90;99.90
13850;DHT22;6995;52.618;13.488;2023-12-28T04:01:32;7.80;99.90
13850;DHT22;6995;52.618;13.488;2023-12-28T04:03:57;7.80;99.90
13850;DHT22;6995;52.618;13.488;2023-12-28T04:06:23;7.80;99.90
13850;DHT22;6995;52.618;13.488;2023-12-28T04:08:49;7.80;99.90
13850;DHT22;6995;52.618;13.488;2023-12-28T04:11:14;7.80;99.90
13850;DHT22;6995;52.618;13.488;2023-12-28T04:13:40;7.80;99.90
13850;DHT22;6995;52.618;13.488;2023-12-28T04:16:06;7.90;99.90
13850;DHT22;6995;52.618;13.488;2023-12-28T04:18:32;7.90;99.90
13850;DHT22;6995;52.618;13.488;2023-12-28T04:20:58;7.90;99.90
13850;DHT22;6995;52.618;13.488;2023-12-28T04:23:24;8.00;99.90
13850;DHT22;6995;52.618;13.488;2023-12-28T04:25:49;8.10;99.90
13850;DHT22;6995;52.618;13.488;2023-12-28T04:28:15;8.10;99.90
13850;DHT22;6995;52.618;13.488;2023-12-28T04:30:40;8.20;99.90
13850;DHT22;6995;52.618;13.488;2023-12-28T04:33:06;8.30;99.90
13850;DHT22;6995;52.618;13.488;2023-12-28T04:35:32;8.40;99.90
13850;DHT22;6995;52.618;13.488;2023-12-28T04:37:57;8.50;99.90
13850;DHT22;6995;52.618;13.488;2023-12-28T04:40:23;8.50;99.90
13850;DHT22;6995;52.618;13.488;2023-12-28T04:42:49;8.50;99.90
13850;DHT22;6995;52.618;13.488;2023-12-28T04:45:14;8.60;99.90
13850;DHT22;6995;52.618;13.488;2023-12-28T04:47:40;8.60;99.90
13850;DHT22;6995;52.618;13.488;2023-12-28T04:50:07;8.70;99.90
13850;DHT22;6995;52.618;13.488;2023-12-28T04:52:33;8.70;99.90
13850;DHT22;6995;52.618;13.488;2023-12-28T04:54:58;8.70;99.90
13850;DHT22;6995;52.618;13.488;2023-12-28T04:57:24;8.80;99.90
13850;DHT22;6995;52.618;13.488;2023-12-28T04:59:51;8.80;99.90
13850;DHT22;6995;52.618;13.488;2023-12-28T05:02:17;8.90;99.90
13850;DHT22;6995;52.618;13.488;2023-12-28T05:04:42;8.90;99.90
13850;DHT22;6995;52.618;13.488;2023-12-28T05:07:08;8.90;99.90
13850;DHT22;6995;52.618;13.488;2023-12-28T05:09:34;8.80;99.90
13850;DHT22;6995;52.618;13.488;2023-12-28T05:11:59;8.90;99.90
13850;DHT22;6995;52.618;13.488;2023-12-28T05:14:25;8.90;99.90
13850;DHT22;6995;52.618;13.488;2023-12-28T05:16:51;9.00;99.90
13850;DHT22;6995;52.618;13.488;2023-12-28T05:19:17;9.00;99.90
13850;DHT22;6995;52.618;13.488;2023-12-28T05:21:42;9.00;99.90
13850;DHT22;6995;52.618;13.488;2023-12-28T05:24:08;9.00;99.90
13850;DHT22;6995;52.618;13.488;2023-12-28T05:26:33;9.00;99.90
13850;DHT22;6995;52.618;13.488;2023-12-28T05:28:59;9.00;99.90
13850;DHT22;6995;52.618;13.488;2023-12-28T05:31:26;8.90;99.90
13850;DHT22;6995;52.618;13.488;2023-12-28T05:33:51;8.90;99.90
13850;DHT22;6995;52.618;13.488;2023-12-28T05:36:17;8.90;99.90
13850;DHT22;6995;52.618;13.488;2023-12-28T05:38:44;8.90;99.90
13850;DHT22;6995;52.618;13.488;2023-12-28T05:41:10;8.90;99.90
13850;DHT22;6995;52.618;13.488;2023-12-28T05:43:36;8.90;99.90
13850;DHT22;6995;52.618;13.488;2023-12-28T05:46:02;8.90;99.90
13850;DHT22;6995;52.618;13.488;2023-12-28T05:48:28;8.80;99.90
13850;DHT22;6995;52.618;13.488;2023-12-28T05:50:53;8.80;99.90
13850;DHT22;6995;52.618;13.488;2023-12-28T05:53:19;8.80;99.90
13850;DHT22;6995;52.618;13.488;2023-12-28T05:55:44;8.90;99.90
13850;DHT22;6995;52.618;13.488;2023-12-28T05:58:10;8.90;99.90
13850;DHT22;6995;52.618;13.488;2023-12-28T06:00:36;8.90;99.90
13850;DHT22;6995;52.618;13.488;2023-12-28T06:03:02;8.90;99.90
13850;DHT22;6995;52.618;13.488;2023-12-28T06:05:28;8.90;99.90
13850;DHT22;6995;52.618;13.488;2023-12-28T06:07:54;9.00;99.90
13850;DHT22;6995;52.618;13.488;2023-12-28T06:10:19;9.00;99.90
13850;DHT22;6995;52.618;13.488;2023-12-28T06:12:45;9.00;99.90
13850;DHT22;6995;52.618;13.488;2023-12-28T06:15:11;9.00;99.90
13850;DHT22;6995;52.618;13.488;2023-12-28T06:17:37;8.90;99.90
13850;DHT22;6995;52.618;13.488;2023-12-28T06:20:03;9.00;99.90
13850;DHT22;6995;52.618;13.488;2023-12-28T06:22:29;8.90;99.90
13850;DHT22;6995;52.618;13.488;2023-12-28T06:24:55;9.00;99.90
13850;DHT22;6995;52.618;13.488;2023-12-28T06:27:21;9.00;99.90
13850;DHT22;6995;52.618;13.488;2023-12-28T06:29:49;9.00;99.90
13850;DHT22;6995;52.618;13.488;2023-12-28T06:32:22;9.10;99.90
13850;DHT22;6995;52.618;13.488;2023-12-28T06:34:48;9.10;99.90
13850;DHT22;6995;52.618;13.488;2023-12-28T06:37:14;9.00;99.90
13850;DHT22;6995;52.618;13.488;2023-12-28T06:39:39;9.00;99.90
13850;DHT22;6995;52.618;13.488;2023-12-28T06:42:05;9.10;99.90
13850;DHT22;6995;52.618;13.488;2023-12-28T06:44:31;9.20;99.90
13850;DHT22;6995;52.618;13.488;2023-12-28T06:46:56;9.20;99.90
13850;DHT22;6995;52.618;13.488;2023-12-28T06:49:23;9.20;99.90
13850;DHT22;6995;52.618;13.488;2023-12-28T06:51:49;9.20;99.90
13850;DHT22;6995;52.618;13.488;2023-12-28T06:54:15;9.10;99.90
13850;DHT22;6995;52.618;13.488;2023-12-28T06:56:41;9.10;99.90
13850;DHT22;6995;52.618;13.488;2023-12-28T06:59:07;9.10;99.90
13850;DHT22;6995;52.618;13.488;2023-12-28T07:01:40;9.10;99.90
13850;DHT22;6995;52.618;13.488;2023-12-28T07:04:05;9.10;99.90
13850;DHT22;6995;52.618;13.488;2023-12-28T07:06:31;9.10;99.90
13850;DHT22;6995;52.618;13.488;2023-12-28T07:08:56;9.10;99.90
13850;DHT22;6995;52.618;13.488;2023-12-28T07:11:22;9.00;99.90
13850;DHT22;6995;52.618;13.488;2023-12-28T07:13:48;9.10;99.90
13850;DHT22;6995;52.618;13.488;2023-12-28T07:16:14;9.20;99.90
13850;DHT22;6995;52.618;13.488;2023-12-28T07:18:39;9.10;99.90
13850;DHT22;6995;52.618;13.488;2023-12-28T07:21:05;9.00;99.90
13850;DHT22;6995;52.618;13.488;2023-12-28T07:23:31;9.10;99.90
13850;DHT22;6995;52.618;13.488;2023-12-28T07:25:57;9.00;99.90
13850;DHT22;6995;52.618;13.488;2023-12-28T07:28:23;9.00;99.90
13850;DHT22;6995;52.618;13.488;2023-12-28T07:30:48;9.00;99.90
13850;DHT22;6995;52.618;13.488;2023-12-28T07:33:14;9.00;99.90
13850;DHT22;6995;52.618;13.488;2023-12-28T07:35:39;9.00;99.90
13850;DHT22;6995;52.618;13.488;2023-12-28T07:38:05;9.00;99.90
13850;DHT22;6995;52.618;13.488;2023-12-28T07:40:31;8.90;99.90
13850;DHT22;6995;52.618;13.488;2023-12-28T07:42:57;8.90;99.90
13850;DHT22;6995;52.618;13.488;2023-12-28T07:45:23;8.90;99.90
13850;DHT22;6995;52.618;13.488;2023-12-28T07:47:50;9.00;99.90
13850;DHT22;6995;52.618;13.488;2023-12-28T07:50:16;9.10;99.90
13850;DHT22;6995;52.618;13.488;2023-12-28T07:52:42;9.10;99.90
13850;DHT22;6995;52.618;13.488;2023-12-28T07:55:08;9.10;99.90
13850;DHT22;6995;52.618;13.488;2023-12-28T07:57:34;9.20;99.90
13850;DHT22;6995;52.618;13.488;2023-12-28T08:00:01;9.10;99.90
13850;DHT22;6995;52.618;13.488;2023-12-28T08:02:26;9.20;99.90
13850;DHT22;6995;52.618;13.488;2023-12-28T08:04:53;9.20;99.90
13850;DHT22;6995;52.618;13.488;2023-12-28T08:07:18;9.20;99.90
13850;DHT22;6995;52.618;13.488;2023-12-28T08:09:44;9.20;99.90
13850;DHT22;6995;52.618;13.488;2023-12-28T08:12:10;9.30;99.90
13850;DHT22;6995;52.618;13.488;2023-12-28T08:14:36;9.30;99.90
13850;DHT22;6995;52.618;13.488;2023-12-28T08:17:01;9.30;99.90
13850;DHT22;6995;52.618;13.488;2023-12-28T08:19:27;9.20;99.90
13850;DHT22;6995;52.618;13.488;2023-12-28T08:21:52;9.30;99.90
13850;DHT22;6995;52.618;13.488;2023-12-28T08:24:18;9.30;99.90
13850;DHT22;6995;52.618;13.488;2023-12-28T08:26:44;9.30;99.90
13850;DHT22;6995;52.618;13.488;2023-12-28T08:29:09;9.20;99.90
13850;DHT22;6995;52.618;13.488;2023-12-28T08:31:35;9.40;99.90
13850;DHT22;6995;52.618;13.488;2023-12-28T08:34:01;9.40;99.90
13850;DHT22;6995;52.618;13.488;2023-12-28T08:36:26;9.40;99.90
13850;DHT22;6995;52.618;13.488;2023-12-28T08:38:52;9.50;99.90
13850;DHT22;6995;52.618;13.488;2023-12-28T08:41:21;9.50;99.90
13850;DHT22;6995;52.618;13.488;2023-12-28T08:43:47;9.50;99.90
13850;DHT22;6995;52.618;13.488;2023-12-28T08:46:13;9.50;99.90
13850;DHT22;6995;52.618;13.488;2023-12-28T08:48:40;9.50;99.90
13850;DHT22;6995;52.618;13.488;2023-12-28T08:51:06;9.50;99.90
13850;DHT22;6995;52.618;13.488;2023-12-28T08:53:32;9.50;99.90
13850;DHT22;6995;52.618;13.488;2023-12-28T08:55:57;9.50;99.90
13850;DHT22;6995;52.618;13.488;2023-12-28T08:58:23;9.50;99.90
13850;DHT22;6995;52.618;13.488;2023-12-28T09:00:49;9.50;99.90
13850;DHT22;6995;52.618;13.488;2023-12-28T09:03:15;9.60;99.90
13850;DHT22;6995;52.618;13.488;2023-12-28T09:05:41;9.60;99.90
13850;DHT22;6995;52.618;13.488;2023-12-28T09:08:06;9.60;99.90
13850;DHT22;6995;52.618;13.488;2023-12-28T09:10:33;9.60;99.90
13850;DHT22;6995;52.618;13.488;2023-12-28T09:12:58;9.60;99.90
13850;DHT22;6995;52.618;13.488;2023-12-28T09:15:24;9.70;99.90
13850;DHT22;6995;52.618;13.488;2023-12-28T09:17:50;9.70;99.90
13850;DHT22;6995;52.618;13.488;2023-12-28T09:20:16;9.70;99.90
13850;DHT22;6995;52.618;13.488;2023-12-28T09:22:41;9.70;99.90
13850;DHT22;6995;52.618;13.488;2023-12-28T09:25:07;9.70;99.90
13850;DHT22;6995;52.618;13.488;2023-12-28T09:27:33;9.70;99.90
13850;DHT22;6995;52.618;13.488;2023-12-28T09:29:59;9.60;99.90
13850;DHT22;6995;52.618;13.488;2023-12-28T09:32:24;9.60;99.90
13850;DHT22;6995;52.618;13.488;2023-12-28T09:34:50;9.70;99.90
13850;DHT22;6995;52.618;13.488;2023-12-28T09:37:15;9.60;99.90
13850;DHT22;6995;52.618;13.488;2023-12-28T09:39:41;9.60;99.90
13850;DHT22;6995;52.618;13.488;2023-12-28T09:42:17;9.70;99.90
13850;DHT22;6995;52.618;13.488;2023-12-28T09:44:43;9.70;99.90
13850;DHT22;6995;52.618;13.488;2023-12-28T09:47:10;9.70;99.90
13850;DHT22;6995;52.618;13.488;2023-12-28T09:49:38;9.70;99.90
13850;DHT22;6995;52.618;13.488;2023-12-28T09:52:05;9.70;99.90
13850;DHT22;6995;52.618;13.488;2023-12-28T09:54:31;9.70;99.90
13850;DHT22;6995;52.618;13.488;2023-12-28T09:56:57;9.70;99.90
13850;DHT22;6995;52.618;13.488;2023-12-28T09:59:24;9.70;99.90
13850;DHT22;6995;52.618;13.488;2023-12-28T10:01:49;9.70;99.90
13850;DHT22;6995;52.618;13.488;2023-12-28T10:04:16;9.70;99.90
13850;DHT22;6995;52.618;13.488;2023-12-28T10:06:42;9.70;99.90
13850;DHT22;6995;52.618;13.488;2023-12-28T10:09:07;9.70;99.90
13850;DHT22;6995;52.618;13.488;2023-12-28T10:11:33;9.70;99.90
13850;DHT22;6995;52.618;13.488;2023-12-28T10:13:59;9.70;99.90
13850;DHT22;6995;52.618;13.488;2023-12-28T10:16:25;9.80;99.90
13850;DHT22;6995;52.618;13.488;2023-12-28T10:18:51;9.80;99.90
13850;DHT22;6995;52.618;13.488;2023-12-28T10:21:16;9.70;99.90
13850;DHT22;6995;52.618;13.488;2023-12-28T10:23:42;9.80;99.90
13850;DHT22;6995;52.618;13.488;2023-12-28T10:26:08;9.80;99.90
13850;DHT22;6995;52.618;13.488;2023-12-28T10:28:37;9.80;99.90
13850;DHT22;6995;52.618;13.488;2023-12-28T10:31:03;9.90;99.90
13850;DHT22;6995;52.618;13.488;2023-12-28T10:33:34;9.90;99.90
13850;DHT22;6995;52.618;13.488;2023-12-28T10:36:05;9.90;99.90
13850;DHT22;6995;52.618;13.488;2023-12-28T10:38:34;10.00;99.90
13850;DHT22;6995;52.618;13.488;2023-12-28T10:41:05;10.00;99.90
13850;DHT22;6995;52.618;13.488;2023-12-28T10:43:46;10.10;99.90
13850;DHT22;6995;52.618;13.488;2023-12-28T10:46:37;10.10;99.90
13850;DHT22;6995;52.618;13.488;2023-12-28T10:49:16;10.10;99.90
13850;DHT22;6995;52.618;13.488;2023-12-28T10:51:43;10.20;99.90
13850;DHT22;6995;52.618;13.488;2023-12-28T10:54:26;10.20;99.90
13850;DHT22;6995;52.618;13.488;2023-12-28T11:02:09;10.30;99.90
13850;DHT22;6995;52.618;13.488;2023-12-28T11:04:47;10.20;99.90
13850;DHT22;6995;52.618;13.488;2023-12-28T11:07:15;10.30;99.90
13850;DHT22;6995;52.618;13.488;2023-12-28T11:09:42;10.40;99.90
13850;DHT22;6995;52.618;13.488;2023-12-28T11:12:08;10.40;99.90
13850;DHT22;6995;52.618;13.488;2023-12-28T11:14:41;10.50;99.90
13850;DHT22;6995;52.618;13.488;2023-12-28T11:17:09;10.50;99.90
13850;DHT22;6995;52.618;13.488;2023-12-28T11:19:35;10.40;99.90
13850;DHT22;6995;52.618;13.488;2023-12-28T11:22:04;10.60;99.90
13850;DHT22;6995;52.618;13.488;2023-12-28T11:24:31;10.60;99.90
13850;DHT22;6995;52.618;13.488;2023-12-28T11:26:58;10.50;99.90
13850;DHT22;6995;52.618;13.488;2023-12-28T11:29:24;10.60;99.90
13850;DHT22;6995;52.618;13.488;2023-12-28T11:31:54;10.60;99.90
13850;DHT22;6995;52.618;13.488;2023-12-28T11:34:32;10.70;99.90
13850;DHT22;6995;52.618;13.488;2023-12-28T11:37:07;10.70;99.90
13850;DHT22;6995;52.618;13.488;2023-12-28T11:39:34;10.80;99.90
13850;DHT22;6995;52.618;13.488;2023-12-28T11:42:07;10.70;99.90
13850;DHT22;6995;52.618;13.488;2023-12-28T11:44:41;10.70;99.90
13850;DHT22;6995;52.618;13.488;2023-12-28T11:47:17;10.90;99.90
13850;DHT22;6995;52.618;13.488;2023-12-28T11:49:46;10.80;99.90
13850;DHT22;6995;52.618;13.488;2023-12-28T11:52:27;10.80;99.90
13850;DHT22;6995;52.618;13.488;2023-12-28T11:54:54;10.70;99.90
13850;DHT22;6995;52.618;13.488;2023-12-28T11:57:20;10.70;99.90
13850;DHT22;6995;52.618;13.488;2023-12-28T11:59:45;10.70;99.90
13850;DHT22;6995;52.618;13.488;2023-12-28T12:02:12;10.70;99.90
13850;DHT22;6995;52.618;13.488;2023-12-28T12:04:39;10.70;99.90
13850;DHT22;6995;52.618;13.488;2023-12-28T12:07:05;10.80;99.90
13850;DHT22;6995;52.618;13.488;2023-12-28T12:09:31;10.80;99.90
13850;DHT22;6995;52.618;13.488;2023-12-28T12:12:03;10.80;99.90
13850;DHT22;6995;52.618;13.488;2023-12-28T12:14:30;10.80;99.90
13850;DHT22;6995;52.618;13.488;2023-12-28T12:16:59;10.80;99.90
13850;DHT22;6995;52.618;13.488;2023-12-28T12:19:25;10.90;99.90
13850;DHT22;6995;52.618;13.488;2023-12-28T12:21:55;10.90;99.90
13850;DHT22;6995;52.618;13.488;2023-12-28T12:24:22;10.90;99.90
13850;DHT22;6995;52.618;13.488;2023-12-28T12:26:49;10.90;99.90
13850;DHT22;6995;52.618;13.488;2023-12-28T12:29:15;11.00;99.90
13850;DHT22;6995;52.618;13.488;2023-12-28T12:31:41;10.90;99.90
13850;DHT22;6995;52.618;13.488;2023-12-28T12:34:09;11.00;99.90
13850;DHT22;6995;52.618;13.488;2023-12-28T12:36:34;11.00;99.90
13850;DHT22;6995;52.618;13.488;2023-12-28T12:39:01;11.00;99.90
13850;DHT22;6995;52.618;13.488;2023-12-28T12:41:26;11.10;99.90
13850;DHT22;6995;52.618;13.488;2023-12-28T12:43:52;11.10;99.90
13850;DHT22;6995;52.618;13.488;2023-12-28T12:46:21;11.20;99.90
13850;DHT22;6995;52.618;13.488;2023-12-28T12:48:57;11.30;99.90
13850;DHT22;6995;52.618;13.488;2023-12-28T12:51:24;11.30;99.90
13850;DHT22;6995;52.618;13.488;2023-12-28T12:53:50;11.30;99.90
13850;DHT22;6995;52.618;13.488;2023-12-28T12:56:15;11.30;99.90
13850;DHT22;6995;52.618;13.488;2023-12-28T12:58:43;11.40;99.90
13850;DHT22;6995;52.618;13.488;2023-12-28T13:01:12;11.30;99.90
13850;DHT22;6995;52.618;13.488;2023-12-28T13:03:37;11.30;99.90
13850;DHT22;6995;52.618;13.488;2023-12-28T13:06:04;11.30;99.90
13850;DHT22;6995;52.618;13.488;2023-12-28T13:08:29;11.60;99.90
13850;DHT22;6995;52.618;13.488;2023-12-28T13:10:55;11.70;99.90
13850;DHT22;6995;52.618;13.488;2023-12-28T13:13:21;11.70;99.90
13850;DHT22;6995;52.618;13.488;2023-12-28T13:15:47;11.70;99.90
13850;DHT22;6995;52.618;13.488;2023-12-28T13:18:12;11.60;99.90
13850;DHT22;6995;52.618;13.488;2023-12-28T13:20:38;11.70;99.90
13850;DHT22;6995;52.618;13.488;2023-12-28T13:23:04;11.70;99.90
13850;DHT22;6995;52.618;13.488;2023-12-28T13:25:32;11.70;99.90
13850;DHT22;6995;52.618;13.488;2023-12-28T13:27:57;11.70;99.90
13850;DHT22;6995;52.618;13.488;2023-12-28T13:30:23;11.90;99.90
13850;DHT22;6995;52.618;13.488;2023-12-28T13:32:51;11.90;99.90
13850;DHT22;6995;52.618;13.488;2023-12-28T13:35:17;11.90;99.90
13850;DHT22;6995;52.618;13.488;2023-12-28T13:37:43;12.00;99.90
13850;DHT22;6995;52.618;13.488;2023-12-28T13:40:09;11.40;99.90
13850;DHT22;6995;52.618;13.488;2023-12-28T13:42:34;11.30;99.90
13850;DHT22;6995;52.618;13.488;2023-12-28T13:45:00;11.30;99.90
13850;DHT22;6995;52.618;13.488;2023-12-28T13:47:26;11.30;99.90
13850;DHT22;6995;52.618;13.488;2023-12-28T13:49:52;11.30;99.90
13850;DHT22;6995;52.618;13.488;2023-12-28T13:52:17;11.20;99.90
13850;DHT22;6995;52.618;13.488;2023-12-28T13:54:43;11.20;99.90
13850;DHT22;6995;52.618;13.488;2023-12-28T13:57:08;11.20;99.90
13850;DHT22;6995;52.618;13.488;2023-12-28T13:59:34;11.10;99.90
13850;DHT22;6995;52.618;13.488;2023-12-28T14:02:00;11.10;99.90
13850;DHT22;6995;52.618;13.488;2023-12-28T14:04:25;11.10;99.90
13850;DHT22;6995;52.618;13.488;2023-12-28T14:06:51;11.10;99.90
13850;DHT22;6995;52.618;13.488;2023-12-28T14:09:16;11.10;99.90
13850;DHT22;6995;52.618;13.488;2023-12-28T14:11:46;11.10;99.90
13850;DHT22;6995;52.618;13.488;2023-12-28T14:14:12;11.00;99.90
13850;DHT22;6995;52.618;13.488;2023-12-28T14:16:38;11.00;99.90
13850;DHT22;6995;52.618;13.488;2023-12-28T14:19:04;11.00;99.90
13850;DHT22;6995;52.618;13.488;2023-12-28T14:21:35;11.00;99.90
13850;DHT22;6995;52.618;13.488;2023-12-28T14:24:01;11.00;99.90
13850;DHT22;6995;52.618;13.488;2023-12-28T14:26:26;10.90;99.90
13850;DHT22;6995;52.618;13.488;2023-12-28T14:28:52;10.80;99.90
13850;DHT22;6995;52.618;13.488;2023-12-28T14:31:18;10.70;99.90
13850;DHT22;6995;52.618;13.488;2023-12-28T14:33:44;10.70;99.90
13850;DHT22;6995;52.618;13.488;2023-12-28T14:36:27;10.60;99.90
13850;DHT22;6995;52.618;13.488;2023-12-28T14:38:55;10.60;99.90
13850;DHT22;6995;52.618;13.488;2023-12-28T14:41:20;10.70;99.90
13850;DHT22;6995;52.618;13.488;2023-12-28T14:43:46;10.60;99.90
13850;DHT22;6995;52.618;13.488;2023-12-28T14:46:15;10.60;99.90
13850;DHT22;6995;52.618;13.488;2023-12-28T14:48:40;10.60;99.90
13850;DHT22;6995;52.618;13.488;2023-12-28T14:51:06;10.60;99.90
13850;DHT22;6995;52.618;13.488;2023-12-28T14:53:31;10.60;99.90
13850;DHT22;6995;52.618;13.488;2023-12-28T14:55:57;10.50;99.90
13850;DHT22;6995;52.618;13.488;2023-12-28T14:58:25;10.60;99.90
13850;DHT22;6995;52.618;13.488;2023-12-28T15:00:52;10.60;99.90
13850;DHT22;6995;52.618;13.488;2023-12-28T15:03:18;10.60;99.90
13850;DHT22;6995;52.618;13.488;2023-12-28T15:05:43;10.60;99.90
13850;DHT22;6995;52.618;13.488;2023-12-28T15:08:09;10.60;99.90
13850;DHT22;6995;52.618;13.488;2023-12-28T15:10:35;10.70;99.90
13850;DHT22;6995;52.618;13.488;2023-12-28T15:13:01;10.60;99.90
13850;DHT22;6995;52.618;13.488;2023-12-28T15:15:27;10.70;99.90
13850;DHT22;6995;52.618;13.488;2023-12-28T15:17:53;10.60;99.90
13850;DHT22;6995;52.618;13.488;2023-12-28T15:20:19;10.60;99.90
13850;DHT22;6995;52.618;13.488;2023-12-28T15:22:45;10.60;99.90
13850;DHT22;6995;52.618;13.488;2023-12-28T15:25:11;10.60;99.90
13850;DHT22;6995;52.618;13.488;2023-12-28T15:27:37;10.50;99.90
13850;DHT22;6995;52.618;13.488;2023-12-28T15:30:03;10.50;99.90
13850;DHT22;6995;52.618;13.488;2023-12-28T15:32:31;10.50;99.90
13850;DHT22;6995;52.618;13.488;2023-12-28T15:34:56;10.40;99.90
13850;DHT22;6995;52.618;13.488;2023-12-28T15:37:22;10.40;99.90
13850;DHT22;6995;52.618;13.488;2023-12-28T15:39:48;10.30;99.90
13850;DHT22;6995;52.618;13.488;2023-12-28T15:42:14;10.30;99.90
13850;DHT22;6995;52.618;13.488;2023-12-28T15:44:39;10.30;99.90
13850;DHT22;6995;52.618;13.488;2023-12-28T15:47:05;10.30;99.90
13850;DHT22;6995;52.618;13.488;2023-12-28T15:49:31;10.20;99.90